createdAt,value
2018-05-15T00:02:31.308Z,3.70
2018-05-15T00:05:04.765Z,3.90
2018-05-15T00:07:33.692Z,3.63
2018-05-15T00:10:05.524Z,4.10
2018-05-15T00:12:37.288Z,4.17
2018-05-15T00:15:08.012Z,4.67
2018-05-15T00:17:49.780Z,4.27
2018-05-15T00:20:18.728Z,4.57
2018-05-15T00:22:46.740Z,4.47
2018-05-15T00:25:25.588Z,4.57
2018-05-15T00:27:58.887Z,4.37
2018-05-15T00:30:43.880Z,4.80
2018-05-15T00:33:11.899Z,4.43
2018-05-15T00:35:43.092Z,4.17
2018-05-15T00:38:23.399Z,4.20
2018-05-15T00:40:55.676Z,4.30
2018-05-15T00:43:32.228Z,4.57
2018-05-15T00:46:00.251Z,4.10
2018-05-15T00:48:41.559Z,4.57
2018-05-15T00:51:20.475Z,4.43
2018-05-15T00:53:50.404Z,4.80
2018-05-15T00:56:23.251Z,4.70
2018-05-15T00:58:52.033Z,4.60
2018-05-15T01:01:25.003Z,4.80
2018-05-15T01:03:53.023Z,4.73
2018-05-15T01:06:24.619Z,4.70
2018-05-15T01:08:52.633Z,5.40
2018-05-15T01:11:27.659Z,4.83
2018-05-15T01:14:02.527Z,4.80
2018-05-15T01:16:31.515Z,5.20
2018-05-15T01:19:00.315Z,4.97
2018-05-15T01:21:28.363Z,5.40
2018-05-15T01:23:56.388Z,4.70
2018-05-15T01:26:29.613Z,6.10
2018-05-15T01:28:58.543Z,5.53
2018-05-15T01:31:29.795Z,4.63
2018-05-15T01:34:01.348Z,5.57
2018-05-15T01:36:29.368Z,5.13
2018-05-15T01:39:00.399Z,5.77
2018-05-15T01:41:34.052Z,5.00
2018-05-15T01:44:18.400Z,5.50
2018-05-15T01:46:46.408Z,5.30
2018-05-15T01:49:14.440Z,6.07
2018-05-15T01:51:43.391Z,5.80
2018-05-15T01:57:28.488Z,5.37
2018-05-15T01:59:58.240Z,4.93
2018-05-15T02:02:26.259Z,5.30
2018-05-15T02:05:07.211Z,5.50
2018-05-15T02:07:38.663Z,5.53
2018-05-15T02:10:19.279Z,5.63
2018-05-15T02:12:53.085Z,5.13
2018-05-15T02:15:23.015Z,4.77
2018-05-15T02:17:54.976Z,5.50
2018-05-15T02:20:35.501Z,4.80
2018-05-15T02:23:21.175Z,5.40
2018-05-15T02:25:51.147Z,5.83
2018-05-15T02:28:28.902Z,4.87
2018-05-15T02:30:56.917Z,6.37
2018-05-15T02:33:25.896Z,5.53
2018-05-15T02:36:02.540Z,5.13
2018-05-15T02:38:30.555Z,5.37
2018-05-15T02:40:58.575Z,5.03
2018-05-15T02:43:38.046Z,5.77
2018-05-15T02:46:09.180Z,5.63
2018-05-15T02:48:37.196Z,5.57
2018-05-15T02:51:09.691Z,5.60
2018-05-15T02:53:37.708Z,5.20
2018-05-15T02:56:22.633Z,5.83
2018-05-15T02:59:00.787Z,6.63
2018-05-15T03:01:30.793Z,5.50
2018-05-15T03:06:56.115Z,5.60
2018-05-15T03:09:35.791Z,5.77
2018-05-15T03:12:10.873Z,5.57
2018-05-15T03:14:52.440Z,5.57
2018-05-15T03:17:25.794Z,5.60
2018-05-15T03:20:20.430Z,5.23
2018-05-15T03:22:49.482Z,6.63
2018-05-15T03:25:37.975Z,5.63
2018-05-15T03:28:13.611Z,6.30
2018-05-15T03:30:43.454Z,5.30
2018-05-15T03:33:11.511Z,5.20
2018-05-15T03:38:52.259Z,5.90
2018-05-15T03:41:33.967Z,5.53
2018-05-15T03:44:05.281Z,6.57
2018-05-15T03:46:35.302Z,5.70
2018-05-15T03:49:15.695Z,6.20
2018-05-15T03:51:44.634Z,6.27
2018-05-15T03:54:17.750Z,5.60
2018-05-15T03:59:48.898Z,6.20
2018-05-15T04:02:41.834Z,6.43
2018-05-15T04:05:22.194Z,6.82
2018-05-15T04:10:56.737Z,7.20
2018-05-15T04:13:25.270Z,6.50
2018-05-15T04:15:54.310Z,6.63
2018-05-15T04:18:24.806Z,6.97
2018-05-15T04:21:04.678Z,5.97
2018-05-15T04:23:34.311Z,6.57
2018-05-15T04:26:06.050Z,6.60
2018-05-15T04:28:41.162Z,6.73
2018-05-15T04:31:20.826Z,6.10
2018-05-15T04:34:10.066Z,7.27
2018-05-15T04:36:38.095Z,5.67
2018-05-15T04:39:06.871Z,5.73
2018-05-15T04:41:34.882Z,5.80
2018-05-15T04:44:06.598Z,6.13
2018-05-15T04:46:36.499Z,6.73
2018-05-15T04:49:18.199Z,6.33
2018-05-15T04:51:46.919Z,6.23
2018-05-15T04:54:14.939Z,6.07
2018-05-15T04:56:49.474Z,6.47
2018-05-15T04:59:17.492Z,5.87
2018-05-15T05:01:50.542Z,6.00
2018-05-15T05:04:22.290Z,6.20
2018-05-15T05:06:50.318Z,6.63
2018-05-15T05:09:19.335Z,6.60
2018-05-15T05:11:48.387Z,6.50
2018-05-15T05:14:16.330Z,6.60
2018-05-15T05:16:47.331Z,6.43
2018-05-15T05:19:15.381Z,6.57
2018-05-15T05:21:43.374Z,6.10
2018-05-15T05:24:13.411Z,6.10
2018-05-15T05:26:43.437Z,5.67
2018-05-15T05:29:15.851Z,5.83
2018-05-15T05:31:50.807Z,5.80
2018-05-15T05:34:32.226Z,5.80
2018-05-15T05:37:02.032Z,5.70
2018-05-15T05:39:36.011Z,6.30
2018-05-15T05:42:15.754Z,5.70
2018-05-15T05:44:47.651Z,5.20
2018-05-15T05:47:18.615Z,5.70
2018-05-15T05:49:46.674Z,5.73
2018-05-15T05:52:14.706Z,5.80
2018-05-15T05:54:42.742Z,5.60
2018-05-15T05:57:10.767Z,5.50
2018-05-15T05:59:45.286Z,6.33
2018-05-15T06:02:27.198Z,6.30
2018-05-15T06:05:00.490Z,5.87
2018-05-15T06:07:29.395Z,5.80
2018-05-15T06:09:58.318Z,5.90
2018-05-15T06:12:26.375Z,5.90
2018-05-15T06:14:56.290Z,6.50
2018-05-15T06:17:35.428Z,5.57
2018-05-15T06:20:05.346Z,5.70
2018-05-15T06:22:33.374Z,5.90
2018-05-15T06:25:11.958Z,5.77
2018-05-15T06:27:40.883Z,6.27
2018-05-15T06:30:11.595Z,5.63
2018-05-15T06:32:39.598Z,5.97
2018-05-15T06:35:07.623Z,6.00
2018-05-15T06:37:35.643Z,6.60
2018-05-15T06:40:04.574Z,6.63
2018-05-15T06:42:37.843Z,5.47
2018-05-15T06:45:14.299Z,6.97
2018-05-15T06:47:46.374Z,6.10
2018-05-15T06:50:16.302Z,6.00
2018-05-15T06:52:52.622Z,6.37
2018-05-15T06:55:23.414Z,6.47
2018-05-15T06:57:55.603Z,6.20
2018-05-15T07:00:24.579Z,6.80
2018-05-15T07:02:57.014Z,5.80
2018-05-15T07:05:25.039Z,5.60
2018-05-15T07:07:54.979Z,5.70
2018-05-15T07:10:27.203Z,5.00
2018-05-15T07:12:56.178Z,6.30
2018-05-15T07:15:27.854Z,6.53
2018-05-15T07:18:03.355Z,5.73
2018-05-15T07:20:32.278Z,4.53
2018-05-15T07:23:01.323Z,4.47
2018-05-15T07:25:30.942Z,4.70
2018-05-15T07:28:00.858Z,4.90
2018-05-15T07:30:30.774Z,5.00
2018-05-15T07:33:00.736Z,4.60
2018-05-15T07:35:36.659Z,4.27
2018-05-15T07:38:23.067Z,4.30
2018-05-15T07:40:51.971Z,4.73
2018-05-15T07:43:26.818Z,4.87
2018-05-15T07:45:54.850Z,5.00
2018-05-15T07:48:23.324Z,4.47
2018-05-15T07:50:56.711Z,4.80
2018-05-15T07:53:29.492Z,4.33
2018-05-15T07:55:59.417Z,3.70
2018-05-15T07:58:29.354Z,3.93
2018-05-15T08:03:56.863Z,3.73
2018-05-15T08:06:31.193Z,3.73
2018-05-15T08:09:00.959Z,3.30
2018-05-15T08:11:29.039Z,3.87
2018-05-15T08:13:57.067Z,3.43
2018-05-15T08:16:29.679Z,3.50
2018-05-15T08:19:04.123Z,3.77
2018-05-15T08:21:38.007Z,4.40
2018-05-15T08:24:10.114Z,3.53
2018-05-15T08:26:38.891Z,3.33
2018-05-15T08:29:10.330Z,3.70
2018-05-15T08:32:03.942Z,3.50
2018-05-15T08:34:37.754Z,4.60
2018-05-15T08:37:11.438Z,3.67
2018-05-15T08:39:52.154Z,3.70
2018-05-15T08:42:21.142Z,3.70
2018-05-15T08:44:49.162Z,3.90
2018-05-15T08:47:18.141Z,4.07
2018-05-15T08:49:51.426Z,3.70
2018-05-15T08:52:29.802Z,3.70
2018-05-15T08:55:03.738Z,3.53
2018-05-15T08:57:52.450Z,3.30
2018-05-15T09:00:20.518Z,3.23
2018-05-15T09:03:04.262Z,3.10
2018-05-15T09:05:40.333Z,3.10
2018-05-15T09:08:25.638Z,3.30
2018-05-15T09:10:54.633Z,3.53
2018-05-15T09:13:33.481Z,2.90
2018-05-15T09:16:06.777Z,3.53
2018-05-15T09:18:52.474Z,4.43
2018-05-15T09:21:25.821Z,2.90
2018-05-15T09:24:05.664Z,3.60
2018-05-15T09:26:33.685Z,3.10
2018-05-15T09:29:02.281Z,3.37
2018-05-15T09:31:30.373Z,2.90
2018-05-15T09:33:58.397Z,3.00
2018-05-15T09:36:38.377Z,3.50
2018-05-15T09:39:07.301Z,3.80
2018-05-15T09:41:35.333Z,3.23
2018-05-15T09:44:04.362Z,4.10
2018-05-15T09:46:37.549Z,4.37
2018-05-15T09:49:12.041Z,3.70
2018-05-15T09:51:40.078Z,3.90
2018-05-15T09:57:16.881Z,3.33
2018-05-15T09:59:52.577Z,3.23
2018-05-15T10:02:20.598Z,3.20
2018-05-15T10:04:55.253Z,3.30
2018-05-15T10:07:23.266Z,3.20
2018-05-15T10:10:16.969Z,3.20
2018-05-15T10:13:04.614Z,3.20
2018-05-15T10:15:39.030Z,2.63
2018-05-15T10:18:32.893Z,2.77
2018-05-15T10:21:14.102Z,2.67
2018-05-15T10:23:47.885Z,2.80
2018-05-15T10:26:20.015Z,2.80
2018-05-15T10:28:54.365Z,2.70
2018-05-15T10:31:23.153Z,3.17
2018-05-15T10:33:52.817Z,3.00
2018-05-15T10:36:39.270Z,2.77
2018-05-15T10:39:18.505Z,2.67
2018-05-15T10:42:01.949Z,2.67
2018-05-15T10:44:36.437Z,2.53
2018-05-15T10:47:05.385Z,2.30
2018-05-15T10:49:37.537Z,2.47
2018-05-15T10:52:29.229Z,2.63
2018-05-15T10:55:05.473Z,1.97
2018-05-15T10:57:34.265Z,2.43
2018-05-15T11:00:03.219Z,1.83
2018-05-15T11:02:36.905Z,2.40
2018-05-15T11:05:09.881Z,2.70
2018-05-15T11:07:37.909Z,2.23
2018-05-15T11:10:20.805Z,1.87
2018-05-15T11:12:51.641Z,4.27
2018-05-15T11:15:28.385Z,2.67
2018-05-15T11:18:14.337Z,2.47
2018-05-15T11:20:58.333Z,2.20
2018-05-15T11:23:40.279Z,2.87
2018-05-15T11:26:16.133Z,2.20
2018-05-15T11:28:59.897Z,2.83
2018-05-15T11:31:33.174Z,2.97
2018-05-15T11:34:04.993Z,2.37
2018-05-15T11:36:35.772Z,2.50
2018-05-15T11:39:08.417Z,2.10
2018-05-15T11:41:50.725Z,2.33
2018-05-15T11:44:18.664Z,2.70
2018-05-15T11:46:46.680Z,2.57
2018-05-15T11:49:15.412Z,2.10
2018-05-15T11:51:48.488Z,2.23
2018-05-15T11:54:15.868Z,1.70
2018-05-15T11:56:48.201Z,2.07
2018-05-15T11:59:21.856Z,1.90
2018-05-15T12:01:54.521Z,2.10
2018-05-15T12:04:28.094Z,1.60
2018-05-15T12:06:56.159Z,1.73
2018-05-15T12:09:30.261Z,2.00
2018-05-15T12:12:14.786Z,1.70
2018-05-15T12:14:43.770Z,2.57
2018-05-15T12:17:12.597Z,2.80
2018-05-15T12:19:40.862Z,2.50
2018-05-15T12:22:10.310Z,2.40
2018-05-15T12:24:38.369Z,3.23
2018-05-15T12:27:09.645Z,2.47
2018-05-15T12:29:39.437Z,2.30
2018-05-15T12:32:09.445Z,2.40
2018-05-15T12:34:37.465Z,2.17
2018-05-15T12:37:08.469Z,2.23
2018-05-15T12:39:36.497Z,2.43
2018-05-15T12:42:04.722Z,2.67
2018-05-15T12:44:34.441Z,3.80
2018-05-15T12:47:07.238Z,3.90
2018-05-15T12:49:36.176Z,4.20
2018-05-15T12:52:04.208Z,4.00
2018-05-15T12:54:38.049Z,3.73
2018-05-15T12:57:07.057Z,6.47
2018-05-15T12:59:35.073Z,3.63
2018-05-15T13:02:05.052Z,4.13
2018-05-15T13:04:39.660Z,3.00
2018-05-15T13:07:08.684Z,5.23
2018-05-15T13:09:41.470Z,3.60
2018-05-15T13:12:15.117Z,3.93
2018-05-15T13:14:44.140Z,3.30
2018-05-15T13:17:22.434Z,4.20
2018-05-15T13:19:56.236Z,3.17
2018-05-15T13:22:25.184Z,3.20
2018-05-15T13:24:54.124Z,3.10
2018-05-15T13:27:24.136Z,3.27
2018-05-15T13:29:53.271Z,3.27
2018-05-15T13:32:25.450Z,3.10
2018-05-15T13:34:59.340Z,2.70
2018-05-15T13:37:30.068Z,3.17
2018-05-15T13:39:58.117Z,3.30
2018-05-15T13:42:26.168Z,2.03
2018-05-15T13:44:57.236Z,2.33
2018-05-15T13:47:33.583Z,2.00
2018-05-15T13:50:06.584Z,1.93
2018-05-15T13:52:38.488Z,1.90
2018-05-15T13:55:06.520Z,1.87
2018-05-15T13:57:40.720Z,2.53
2018-05-15T14:00:15.259Z,3.10
2018-05-15T14:02:50.711Z,4.93
2018-05-15T14:05:20.509Z,4.03
2018-05-15T14:07:54.024Z,6.67
2018-05-15T14:10:27.591Z,4.07
2018-05-15T14:12:55.643Z,3.80
2018-05-15T14:15:40.616Z,3.30
2018-05-15T14:18:09.681Z,3.10
2018-05-15T14:20:39.673Z,3.17
2018-05-15T14:23:16.028Z,3.77
2018-05-15T14:25:47.880Z,3.60
2018-05-15T14:28:20.452Z,3.53
2018-05-15T14:31:14.112Z,3.90
2018-05-15T14:36:35.757Z,4.43
2018-05-15T14:39:04.682Z,3.20
2018-05-15T14:41:44.489Z,3.80
2018-05-15T14:47:12.872Z,3.60
2018-05-15T14:49:45.919Z,3.10
2018-05-15T14:52:15.928Z,2.93
2018-05-15T14:54:54.980Z,3.03
2018-05-15T14:57:27.911Z,2.60
2018-05-15T14:59:55.852Z,3.10
2018-05-15T15:02:27.448Z,3.30
2018-05-15T15:05:00.355Z,4.10
2018-05-15T15:07:32.011Z,2.50
2018-05-15T15:10:07.744Z,2.90
2018-05-15T15:12:38.451Z,2.83
2018-05-15T15:15:16.995Z,2.33
2018-05-15T15:17:46.995Z,2.37
2018-05-15T15:20:15.035Z,2.77
2018-05-15T15:22:43.085Z,2.47
2018-05-15T15:25:12.039Z,2.87
2018-05-15T15:27:41.723Z,3.20
2018-05-15T15:30:15.267Z,2.10
2018-05-15T15:32:48.823Z,2.63
2018-05-15T15:35:34.855Z,2.60
2018-05-15T15:38:08.415Z,2.37
2018-05-15T15:40:48.923Z,2.43
2018-05-15T15:43:16.943Z,2.40
2018-05-15T15:45:46.981Z,2.90
2018-05-15T15:48:15.051Z,3.07
2018-05-15T15:50:59.950Z,1.80
2018-05-15T15:53:33.607Z,2.90
2018-05-15T15:56:04.547Z,2.40
2018-05-15T15:58:32.599Z,2.60
2018-05-15T16:01:02.655Z,2.23
2018-05-15T16:03:31.571Z,2.07
2018-05-15T16:06:01.543Z,1.80
2018-05-15T16:08:29.607Z,3.20
2018-05-15T16:10:57.651Z,3.10
2018-05-15T16:13:27.567Z,2.30
2018-05-15T16:15:55.610Z,2.27
2018-05-15T16:18:25.571Z,2.63
2018-05-15T16:20:57.983Z,2.30
2018-05-15T16:23:27.775Z,2.57
2018-05-15T16:25:57.884Z,2.50
2018-05-15T16:28:26.879Z,2.50
2018-05-15T16:30:55.879Z,2.70
2018-05-15T16:33:32.435Z,2.43
2018-05-15T16:36:00.459Z,2.20
2018-05-15T16:38:30.375Z,2.60
2018-05-15T16:41:12.666Z,2.30
2018-05-15T16:43:40.691Z,2.20
2018-05-15T16:46:10.630Z,2.50
2018-05-15T16:48:39.458Z,2.10
2018-05-15T16:51:07.515Z,2.40
2018-05-15T16:53:40.899Z,2.30
2018-05-15T16:56:15.291Z,1.97
2018-05-15T16:58:48.396Z,2.10
2018-05-15T17:01:16.386Z,2.30
2018-05-15T17:03:45.450Z,2.60
2018-05-15T17:06:16.158Z,1.70
2018-05-15T17:08:44.203Z,2.40
2018-05-15T17:11:13.174Z,2.10
2018-05-15T17:13:42.283Z,2.50
2018-05-15T17:16:20.599Z,2.00
2018-05-15T17:19:10.445Z,2.30
2018-05-15T17:21:42.194Z,2.20
2018-05-15T17:24:12.938Z,2.00
2018-05-15T17:26:40.982Z,2.20
2018-05-15T17:29:09.018Z,2.30
2018-05-15T17:31:39.034Z,2.17
2018-05-15T17:34:08.930Z,2.40
2018-05-15T17:36:43.418Z,2.03
2018-05-15T17:39:11.506Z,2.30
2018-05-15T17:41:40.446Z,2.60
2018-05-15T17:47:02.427Z,2.73
2018-05-15T17:49:41.572Z,3.20
2018-05-15T17:52:13.693Z,3.33
2018-05-15T17:54:43.753Z,3.50
2018-05-15T17:57:13.522Z,3.13
2018-05-15T17:59:44.234Z,3.20
2018-05-15T18:02:24.158Z,3.70
2018-05-15T18:04:59.914Z,3.90
2018-05-15T18:07:37.654Z,4.50
2018-05-15T18:10:13.470Z,3.80
2018-05-15T18:12:43.409Z,4.23
2018-05-15T18:15:11.445Z,4.43
2018-05-15T18:17:41.298Z,4.33
2018-05-15T18:20:12.961Z,4.50
2018-05-15T18:22:41.224Z,4.63
2018-05-15T18:25:09.254Z,4.40
2018-05-15T18:27:42.618Z,4.50
2018-05-15T18:30:12.370Z,4.53
2018-05-15T18:32:40.402Z,4.93
2018-05-15T18:35:09.214Z,5.40
2018-05-15T18:37:38.283Z,5.57
2018-05-15T18:40:07.118Z,6.00
2018-05-15T18:42:36.205Z,5.53
2018-05-15T18:45:05.254Z,5.73
2018-05-15T18:47:35.294Z,5.40
2018-05-15T18:50:03.332Z,4.83
2018-05-15T18:52:32.346Z,5.30
2018-05-15T18:55:01.210Z,4.63
2018-05-15T18:57:29.242Z,4.07
2018-05-15T19:00:05.407Z,4.77
2018-05-15T19:02:41.030Z,3.90
2018-05-15T19:13:56.752Z,3.50
2018-05-15T19:16:37.374Z,4.10
2018-05-15T19:19:09.104Z,3.53
2018-05-15T19:21:39.051Z,3.10
2018-05-15T19:24:10.971Z,3.33
2018-05-15T19:26:46.496Z,3.20
2018-05-15T19:29:16.458Z,2.50
2018-05-15T19:31:52.483Z,2.40
2018-05-15T19:34:32.561Z,2.30
2018-05-15T19:37:12.842Z,2.23
2018-05-15T19:39:43.760Z,2.40
2018-05-15T19:42:15.684Z,2.40
2018-05-15T19:45:00.751Z,2.60
2018-05-15T19:47:34.486Z,2.10
2018-05-15T19:50:16.338Z,2.20
2018-05-15T19:52:50.342Z,2.20
2018-05-15T19:55:19.322Z,2.63
2018-05-15T19:57:51.268Z,2.70
2018-05-15T20:00:22.366Z,2.50
2018-05-15T20:02:50.491Z,2.57
2018-05-15T20:05:18.550Z,2.87
2018-05-15T20:07:51.847Z,2.83
2018-05-15T20:10:26.418Z,2.63
2018-05-15T20:12:59.736Z,2.60
2018-05-15T20:15:33.539Z,2.80
2018-05-15T20:18:07.230Z,2.70
2018-05-15T20:20:38.774Z,3.10
2018-05-15T20:23:18.310Z,3.03
2018-05-15T20:25:52.929Z,3.50
2018-05-15T20:28:21.109Z,3.77
2018-05-15T20:30:49.162Z,3.60
2018-05-15T20:33:18.182Z,3.55
2018-05-15T20:35:48.138Z,3.60
2018-05-15T20:38:18.447Z,3.47
2018-05-15T20:40:48.538Z,4.03
2018-05-15T20:43:28.974Z,4.30
2018-05-15T20:45:59.014Z,4.70
2018-05-15T20:48:29.454Z,4.40
2018-05-15T20:51:02.114Z,4.50
2018-05-15T20:53:31.139Z,4.60
2018-05-15T20:56:00.154Z,4.50
2018-05-15T20:58:31.625Z,4.10
2018-05-15T21:01:00.418Z,4.37
2018-05-15T21:03:28.738Z,4.10
2018-05-15T21:05:57.754Z,4.73
2018-05-15T21:08:26.814Z,5.13
2018-05-15T21:10:55.002Z,5.07
2018-05-15T21:13:30.658Z,6.05
2018-05-15T21:16:01.614Z,6.07
2018-05-15T21:18:30.666Z,5.60
2018-05-15T21:21:11.638Z,7.25
2018-05-15T21:26:34.835Z,7.10
2018-05-15T21:29:03.778Z,8.13
2018-05-15T21:31:32.734Z,8.07
2018-05-15T21:34:00.837Z,7.95
2018-05-15T21:36:39.304Z,8.25
2018-05-15T21:39:13.194Z,8.00
2018-05-15T21:41:42.289Z,9.15
2018-05-15T21:44:12.110Z,8.75
2018-05-15T21:46:44.862Z,9.73
2018-05-15T21:49:33.538Z,10.75
2018-05-15T21:52:01.730Z,10.85
2018-05-15T21:54:30.766Z,10.27
2018-05-15T21:57:01.547Z,11.25
2018-05-15T21:59:29.607Z,12.48
2018-05-15T22:01:58.668Z,11.50
2018-05-15T22:04:30.814Z,11.75
2018-05-15T22:07:09.277Z,11.60
2018-05-15T22:09:38.606Z,13.93
2018-05-15T22:12:18.577Z,14.02
2018-05-15T22:15:00.569Z,12.77
2018-05-15T22:17:41.609Z,12.50
2018-05-15T22:20:23.850Z,13.88
2018-05-15T22:22:53.394Z,11.98
2018-05-15T22:25:25.674Z,13.80
2018-05-15T22:27:53.743Z,13.60
2018-05-15T22:30:21.790Z,13.90
2018-05-15T22:32:53.678Z,14.63
2018-05-15T22:35:29.218Z,13.88
2018-05-15T22:37:58.718Z,14.48
2018-05-15T22:40:28.735Z,14.10
2018-05-15T22:43:00.637Z,16.00
2018-05-15T22:45:28.665Z,16.27
2018-05-15T22:48:01.131Z,16.23
2018-05-15T22:50:31.174Z,15.73
2018-05-15T22:53:13.793Z,18.25
2018-05-15T22:55:46.961Z,16.60
2018-05-15T22:58:15.002Z,17.75
2018-05-15T23:00:45.697Z,17.90
2018-05-15T23:03:19.006Z,17.50
2018-05-15T23:05:52.926Z,17.60
2018-05-15T23:08:31.209Z,16.35
2018-05-15T23:10:59.244Z,19.10
2018-05-15T23:13:28.162Z,19.65
2018-05-15T23:15:58.982Z,19.98
2018-05-15T23:18:30.394Z,19.77
2018-05-15T23:20:59.226Z,20.83
2018-05-15T23:23:37.369Z,20.45
2018-05-15T23:26:05.437Z,21.42
2018-05-15T23:28:34.478Z,20.75
2018-05-15T23:31:12.837Z,20.75
2018-05-15T23:33:52.530Z,22.50
2018-05-15T23:39:14.786Z,22.40
2018-05-15T23:41:54.497Z,22.33
2018-05-15T23:44:29.413Z,23.05
2018-05-15T23:47:00.469Z,23.00
2018-05-15T23:49:34.761Z,24.60
2018-05-15T23:52:05.933Z,24.52
2018-05-15T23:54:34.749Z,23.77
2018-05-15T23:57:13.097Z,24.75
2018-05-15T23:59:53.025Z,24.73
